Terminal Aerodrome Forecast
Issued by NWS

Home | Current Version | Previous Version | Text Only | Print | Product List | Glossary On
Versions: 1 2 3 4 5 6 7 8 9 10 11 12
000
FTUS44 KCRP 301129
TAFLRD
TAF
KLRD 301129Z 3012/3112 12008KT P6SM FEW040 SCT250
     FM310300 12015KT P6SM SKC
     FM310800 14009KT P6SM SCT020=

USA.gov is the U.S. government's official web portal to all federal, state and local government web resources and services.